Aérodrome :
LOGIN :

S'inscrire | Disclaimer

   EN    FR    IT 

 










Légende :    VFR   VFR Marginal   IFR   IFR Intensif   IFR Très Intensif
Visi : 
Plafond : 
>= 8 km
>= 3000ft
5 à 8 km
1000 à 3000 ft
1500m à 5 km
500 à 1000 ft
800 à 1500m
200 à 500 ft
< 800m
< 200 ft
Symboles :   Orages  Brouillard  Fortes neiges  Fortes précipitations  Vent > 20 kt
SIGMETs :   Divers  Orages  Givrage  Turbulence  Onde Orograph.  Cendres Volcan.






- Altitude de l'aérodrome : 268 ft
- Code IATA : BFS


EGAA - Belfast Aldergrove

DERNIER METAR :
  • 152020Z 16011KT CAVOK 11/09 Q0997

METARs EXPIRÉS :
  • 151950Z 15010KT CAVOK 11/09 Q0997
  • 151920Z 16009KT CAVOK 11/09 Q0997
  • 151850Z 16008KT CAVOK 11/10 Q0997
  • 151820Z 17007KT 9999 FEW030 12/11 Q0997
  • 151750Z 16008KT 9999 FEW008 SCT027 12/11 Q0997

TAF TAF EGAA
Valide du 15 à 18h jusqu'au 16 à 18h UTC


151703Z 1518/1618 15010KT 9999 FEW015 SCT035
BECMG 1520/1523 14017G27KT
TEMPO 1521/1604 7000 RA -RADZ BKN012
PROB30
TEMPO 1523/1603 4000 +RA RADZ BKN007
BECMG 1602/1605 24010KT
BECMG 1615/1618 17007KT



MET'MAP, la Météo Aéronautique d'un coup d'oeil ! - Copyright ORBIFLY Décembre 2007 - Disclaimer

ORBIFLY MET'MAP TEAM :

Programmation & Développement : Alexandra Zaïnal
Conception & Développement : Baudouin d'Aumeries
Co-Programmation & Développement : Marc-Olivier Méhu
Soutien technique & logistique : Manuel Goepfert

Contact : metmap@orbifly.com




SOURCES & CREDITS :

   NOAA